Time;durP1;ratioP1;P1;durP2;ratioP2;P2;SDS_P1;SDS_P2;PMS_P1;PMS_P2;Temp;Humidity;BMP_temperature;BMP_pressure;BME280_temperature;BME280_humidity;BME280_pressure;Samples;Min_cycle;Max_cycle;Signal;HPM_P1;HPM_P2
2023/04/07 00:00:43;;;;;;;2.43;2.23;;;;;;;9.35;64.62;96625.59;5041336;28;20592;-58
2023/04/07 00:03:10;;;;;;;3.13;2.50;;;;;;;9.34;65.39;96620.47;5041389;28;20211;-59
2023/04/07 00:05:36;;;;;;;2.33;2.20;;;;;;;9.33;66.25;96624.09;5041916;28;20327;-59
2023/04/07 00:08:03;;;;;;;2.53;2.33;;;;;;;9.23;67.59;96617.94;5041888;28;20211;-60
2023/04/07 00:10:31;;;;;;;3.90;2.57;;;;;;;9.30;65.31;96616.44;5042345;28;20210;-59
2023/04/07 00:12:57;;;;;;;3.87;2.13;;;;;;;9.29;66.25;96609.47;5042500;28;20212;-60
2023/04/07 00:15:24;;;;;;;2.60;2.40;;;;;;;9.32;65.69;96603.94;5041744;28;20215;-59
2023/04/07 00:17:50;;;;;;;2.50;2.30;;;;;;;9.37;63.07;96599.09;5042161;28;20207;-59
2023/04/07 00:20:17;;;;;;;2.70;2.50;;;;;;;9.37;64.39;96594.66;5051873;28;20228;-59
2023/04/07 00:22:43;;;;;;;2.57;2.00;;;;;;;9.37;64.55;96588.53;5051338;28;20203;-58
2023/04/07 00:25:10;;;;;;;2.33;2.10;;;;;;;9.36;67.32;96592.97;5044576;28;20219;-60
2023/04/07 00:27:37;;;;;;;2.47;2.27;;;;;;;9.39;65.37;96590.06;5042471;28;20202;-59
2023/04/07 00:30:05;;;;;;;3.13;2.20;;;;;;;9.40;66.84;96593.53;5042480;28;20207;-60
2023/04/07 00:32:32;;;;;;;4.00;2.60;;;;;;;9.37;66.85;96584.09;5041728;28;20216;-57
2023/04/07 00:34:58;;;;;;;3.17;2.50;;;;;;;9.34;67.92;96584.38;5041108;28;20210;-57
2023/04/07 00:37:25;;;;;;;2.47;2.23;;;;;;;9.41;63.54;96576.75;5042433;28;20211;-58
2023/04/07 00:39:52;;;;;;;2.70;2.50;;;;;;;9.39;67.47;96576.88;5041670;28;20215;-58
2023/04/07 00:42:18;;;;;;;1.97;1.83;;;;;;;9.37;68.22;96567.41;5041696;28;20210;-59
2023/04/07 00:44:46;;;;;;;2.53;2.33;;;;;;;9.37;68.23;96568.25;5040821;28;20640;-58
2023/04/07 00:47:12;;;;;;;2.63;2.43;;;;;;;9.39;66.95;96568.94;5041582;28;20238;-58
2023/04/07 00:49:39;;;;;;;3.03;2.13;;;;;;;9.40;66.19;96567.97;5040847;28;20230;-59
2023/04/07 00:52:05;;;;;;;2.67;1.97;;;;;;;9.31;66.56;96566.19;5041213;28;20214;-58
2023/04/07 00:54:32;;;;;;;2.50;2.30;;;;;;;9.31;66.84;96560.06;5040910;28;20231;-59
2023/04/07 00:56:58;;;;;;;2.43;2.13;;;;;;;9.32;65.30;96559.06;5041387;28;20872;-59
2023/04/07 00:59:25;;;;;;;2.77;2.30;;;;;;;9.23;65.52;96555.47;5040755;28;20498;-59
2023/04/07 01:01:59;;;;;;;3.70;2.50;;;;;;;9.27;66.27;96548.13;5041472;28;20212;-59
2023/04/07 01:04:31;;;;;;;2.63;2.43;;;;;;;9.32;64.19;96543.25;5040342;28;20257;-57
2023/04/07 01:07:04;;;;;;;2.53;2.33;;;;;;;9.33;65.04;96539.63;5041265;28;20216;-59
2023/04/07 01:09:36;;;;;;;2.60;2.33;;;;;;;9.36;65.43;96539.34;5041041;28;20191;-60
2023/04/07 01:12:08;;;;;;;3.63;2.30;;;;;;;9.30;66.59;96542.56;5042409;28;20234;-59
2023/04/07 01:14:40;;;;;;;2.80;1.90;;;;;;;9.27;66.45;96534.91;5044942;28;20565;-59
2023/04/07 01:17:10;;;;;;;2.83;2.33;;;;;;;9.21;66.98;96535.47;5044713;28;20192;-58
2023/04/07 01:19:39;;;;;;;3.43;2.27;;;;;;;9.21;67.01;96535.47;5045439;28;20256;-60
2023/04/07 01:22:08;;;;;;;2.33;2.10;;;;;;;9.18;67.42;96541.00;5044629;28;20632;-60
2023/04/07 01:24:48;;;;;;;2.27;2.07;;;;;;;9.15;67.49;96530.72;5045189;28;20648;-60
2023/04/07 01:27:31;;;;;;;2.30;2.10;;;;;;;9.08;67.94;96529.59;5044793;28;20273;-58
2023/04/07 01:30:00;;;;;;;2.17;2.07;;;;;;;9.08;67.68;96529.59;5044900;28;20227;-59
2023/04/07 01:32:27;;;;;;;2.70;2.50;;;;;;;9.10;67.54;96525.03;5045191;28;20203;-59
2023/04/07 01:34:54;;;;;;;2.57;2.27;;;;;;;9.04;68.46;96522.94;5043968;28;20635;-58
2023/04/07 01:37:21;;;;;;;2.10;2.00;;;;;;;9.04;68.23;96525.56;5046162;28;20199;-59
2023/04/07 01:39:48;;;;;;;2.60;2.40;;;;;;;8.99;69.77;96531.28;5044980;28;20199;-60
2023/04/07 01:42:18;;;;;;;2.30;2.20;;;;;;;8.90;70.59;96530.28;5045241;28;20212;-60
2023/04/07 01:44:46;;;;;;;2.80;2.27;;;;;;;8.94;70.37;96520.28;5045303;28;20202;-59
2023/04/07 01:47:15;;;;;;;2.23;2.03;;;;;;;8.98;69.78;96527.78;5043629;28;20215;-60
2023/04/07 01:49:42;;;;;;;2.40;2.20;;;;;;;8.96;70.00;96524.44;5043655;28;20577;-59
2023/04/07 01:52:08;;;;;;;3.90;2.53;;;;;;;8.90;71.07;96517.09;5044231;28;20210;-58
2023/04/07 01:54:35;;;;;;;2.23;1.97;;;;;;;8.92;70.31;96522.25;5043057;28;20636;-58
2023/04/07 01:57:01;;;;;;;2.40;2.20;;;;;;;8.90;71.08;96508.34;5044186;28;20191;-58
2023/04/07 01:59:28;;;;;;;2.33;2.03;;;;;;;8.97;70.89;96509.47;5044200;28;20582;-59
2023/04/07 02:01:54;;;;;;;2.10;2.00;;;;;;;8.94;70.89;96509.72;5044883;28;20246;-58
2023/04/07 02:04:28;;;;;;;3.10;2.30;;;;;;;8.92;70.91;96514.31;5043455;28;20238;-59
2023/04/07 02:06:59;;;;;;;4.57;2.53;;;;;;;8.88;70.85;96508.50;5044938;28;20235;-58
2023/04/07 02:09:28;;;;;;;3.40;2.67;;;;;;;8.87;71.32;96508.63;5050452;28;20199;-61
2023/04/07 02:11:56;;;;;;;2.43;2.23;;;;;;;8.87;70.55;96501.53;5054863;28;20211;-58
2023/04/07 02:14:23;;;;;;;2.50;2.10;;;;;;;8.83;71.04;96499.31;5051575;28;20250;-58
2023/04/07 02:16:51;;;;;;;2.20;2.00;;;;;;;8.77;71.73;96500.69;5061773;28;20217;-60
2023/04/07 02:19:17;;;;;;;2.17;2.07;;;;;;;8.85;70.76;96492.94;5060683;28;20203;-60
2023/04/07 02:21:45;;;;;;;2.73;2.10;;;;;;;8.82;71.24;96487.91;5066043;28;20234;-59
2023/04/07 02:24:12;;;;;;;3.27;2.10;;;;;;;8.79;71.68;96477.66;5058763;28;20208;-59
2023/04/07 02:26:38;;;;;;;2.07;1.97;;;;;;;8.80;70.94;96484.59;5059014;28;20231;-59
2023/04/07 02:29:05;;;;;;;2.37;2.17;;;;;;;8.75;71.71;96481.53;5048460;28;20216;-58
2023/04/07 02:31:32;;;;;;;2.30;1.90;;;;;;;8.72;72.88;96478.31;5043418;28;20622;-58
2023/04/07 02:33:58;;;;;;;2.07;1.97;;;;;;;8.73;72.07;96480.00;5043206;28;20200;-59
2023/04/07 02:36:25;;;;;;;3.03;2.40;;;;;;;8.69;71.59;96474.16;5043459;28;20214;-58
2023/04/07 02:38:52;;;;;;;2.50;2.30;;;;;;;8.72;71.00;96471.25;5042979;28;20207;-60
2023/04/07 02:41:20;;;;;;;2.40;2.20;;;;;;;8.72;72.30;96465.13;5043353;28;20211;-60
2023/04/07 02:43:46;;;;;;;3.27;2.17;;;;;;;8.73;72.48;96472.94;5042824;28;20196;-61
2023/04/07 02:46:13;;;;;;;2.00;1.90;;;;;;;8.63;73.51;96455.41;5042904;28;20234;-60
2023/04/07 02:48:39;;;;;;;2.53;2.33;;;;;;;8.60;74.65;96446.00;5042508;28;20212;-60
2023/04/07 02:51:06;;;;;;;3.10;2.27;;;;;;;8.51;73.64;96441.50;5042843;28;20204;-58
2023/04/07 02:53:32;;;;;;;2.17;2.07;;;;;;;8.48;74.59;96444.44;5042682;28;20251;-58
2023/04/07 02:56:00;;;;;;;2.10;2.00;;;;;;;8.49;75.42;96432.94;5043538;28;20203;-59
2023/04/07 02:58:26;;;;;;;2.07;1.97;;;;;;;8.42;75.10;96437.06;5042815;28;20204;-59
2023/04/07 03:00:53;;;;;;;2.30;2.10;;;;;;;8.40;73.38;96445.09;5043064;28;20202;-58
2023/04/07 03:03:19;;;;;;;2.50;2.30;;;;;;;8.34;74.39;96440.38;5042609;28;20199;-60
2023/04/07 03:05:46;;;;;;;2.50;2.30;;;;;;;8.23;75.18;96426.44;5042579;28;20215;-59
2023/04/07 03:08:12;;;;;;;2.30;2.07;;;;;;;8.25;73.22;96429.78;5042641;28;20203;-58
2023/04/07 03:10:38;;;;;;;3.20;2.23;;;;;;;8.24;71.96;96433.38;5042875;28;20204;-60
2023/04/07 03:13:07;;;;;;;3.60;2.37;;;;;;;8.23;72.76;96434.34;5042758;28;20214;-58
2023/04/07 03:15:33;;;;;;;4.87;2.80;;;;;;;8.18;73.16;96431.28;5042344;28;20203;-59
2023/04/07 03:18:00;;;;;;;2.47;2.20;;;;;;;8.13;73.95;96415.88;5042116;28;20632;-58
2023/04/07 03:20:26;;;;;;;2.63;2.43;;;;;;;8.10;76.22;96425.84;5042110;28;21305;-57
2023/04/07 03:22:53;;;;;;;2.80;2.60;;;;;;;8.10;74.58;96425.84;5042321;28;20203;-59
2023/04/07 03:25:20;;;;;;;3.37;2.53;;;;;;;8.05;74.30;96420.13;5042727;28;20208;-59
2023/04/07 03:27:46;;;;;;;2.60;2.30;;;;;;;7.99;75.02;96419.72;5042895;28;21346;-58
2023/04/07 03:30:15;;;;;;;2.17;2.00;;;;;;;7.98;76.32;96417.19;5042527;28;20203;-60
2023/04/07 03:32:41;;;;;;;2.63;2.40;;;;;;;8.00;74.98;96421.38;5043402;28;20214;-60
2023/04/07 03:35:08;;;;;;;2.47;2.23;;;;;;;7.90;75.71;96414.41;5041302;28;20200;-59
2023/04/07 03:37:35;;;;;;;2.53;2.30;;;;;;;7.99;74.97;96419.72;5043556;28;20207;-59
2023/04/07 03:40:02;;;;;;;3.27;2.70;;;;;;;8.04;74.36;96415.84;5043344;28;20234;-59
2023/04/07 03:42:28;;;;;;;2.60;2.40;;;;;;;8.08;74.43;96417.25;5043559;28;20273;-59
2023/04/07 03:44:55;;;;;;;2.50;2.30;;;;;;;8.07;75.45;96420.84;5041513;28;20575;-58
2023/04/07 03:47:22;;;;;;;3.40;2.63;;;;;;;8.05;75.94;96417.50;5048103;28;20226;-59
2023/04/07 03:49:49;;;;;;;3.30;2.30;;;;;;;8.05;76.25;96414.84;5056711;28;20203;-58
2023/04/07 03:52:15;;;;;;;3.90;2.47;;;;;;;8.02;75.24;96424.72;5058412;28;20206;-57
2023/04/07 03:54:42;;;;;;;2.37;2.17;;;;;;;8.02;78.28;96418.59;5051008;28;20223;-58
2023/04/07 03:57:09;;;;;;;3.10;2.27;;;;;;;8.01;78.06;96417.75;5042546;28;20628;-59
2023/04/07 03:59:35;;;;;;;2.43;2.23;;;;;;;8.00;78.12;96412.66;5041496;28;20301;-59
2023/04/07 04:02:02;;;;;;;2.97;2.40;;;;;;;8.07;77.52;96418.22;5042179;28;20226;-60
2023/04/07 04:04:30;;;;;;;4.63;3.10;;;;;;;8.12;75.57;96406.28;5041060;28;20295;-60
2023/04/07 04:06:56;;;;;;;2.40;2.20;;;;;;;8.14;75.51;96411.44;5041661;28;20223;-57
2023/04/07 04:09:23;;;;;;;2.53;2.43;;;;;;;8.16;74.32;96409.50;5041346;28;20203;-58
2023/04/07 04:11:49;;;;;;;2.53;2.33;;;;;;;8.20;74.61;96411.72;5042179;28;20211;-59
2023/04/07 04:14:16;;;;;;;3.37;2.70;;;;;;;8.19;75.50;96404.78;5041112;28;20214;-58
2023/04/07 04:16:42;;;;;;;2.80;2.60;;;;;;;8.17;75.41;96400.63;5041418;28;20627;-60
2023/04/07 04:19:09;;;;;;;2.70;2.50;;;;;;;8.13;75.86;96400.06;5041407;28;20211;-59
2023/04/07 04:21:36;;;;;;;2.83;2.60;;;;;;;8.17;77.64;96395.38;5041482;28;20224;-60
2023/04/07 04:24:03;;;;;;;2.63;2.43;;;;;;;8.14;78.22;96393.00;5041351;28;20203;-59
2023/04/07 04:26:30;;;;;;;3.83;2.73;;;;;;;8.18;76.57;96391.78;5041481;28;20317;-59
2023/04/07 04:28:56;;;;;;;2.50;2.30;;;;;;;8.18;76.10;96386.50;5041263;28;20214;-59
2023/04/07 04:31:23;;;;;;;3.30;2.60;;;;;;;8.21;75.74;96386.22;5041805;28;20195;-59
2023/04/07 04:33:49;;;;;;;2.97;2.70;;;;;;;8.01;77.15;96374.78;5041199;28;20298;-59
2023/04/07 04:36:16;;;;;;;3.03;2.73;;;;;;;7.92;77.33;96381.72;5047037;28;20263;-58
2023/04/07 04:38:44;;;;;;;2.80;2.60;;;;;;;7.84;75.69;96373.63;5046587;28;20200;-58
2023/04/07 04:41:10;;;;;;;3.40;2.80;;;;;;;7.78;76.72;96374.19;5041182;28;20637;-60
2023/04/07 04:43:40;;;;;;;3.47;2.63;;;;;;;7.64;77.91;96369.25;5040841;28;20276;-60
2023/04/07 04:46:06;;;;;;;4.57;3.10;;;;;;;7.51;79.62;96360.72;5042681;28;20285;-60
2023/04/07 04:48:32;;;;;;;3.30;3.00;;;;;;;7.48;78.39;96361.00;5044842;28;20850;-59
2023/04/07 04:50:59;;;;;;;2.73;2.53;;;;;;;7.48;75.59;96361.84;5045456;28;20547;-60
2023/04/07 04:53:26;;;;;;;4.43;3.03;;;;;;;7.37;76.81;96368.97;5045192;28;20230;-58
2023/04/07 04:55:54;;;;;;;3.10;2.90;;;;;;;7.34;76.74;96370.06;5045755;28;20234;-59
2023/04/07 04:58:21;;;;;;;3.53;3.23;;;;;;;7.23;77.87;96364.88;5045420;28;20518;-58
2023/04/07 05:00:48;;;;;;;5.43;3.00;;;;;;;7.20;79.40;96366.94;5045561;28;20280;-59
2023/04/07 05:03:14;;;;;;;3.37;2.97;;;;;;;7.23;78.39;96359.63;5044668;28;20513;-58
2023/04/07 05:05:41;;;;;;;3.40;2.93;;;;;;;7.27;78.39;96357.56;5045518;28;20289;-60
2023/04/07 05:08:10;;;;;;;3.43;3.13;;;;;;;7.27;77.79;96368.09;5044889;28;20215;-57
2023/04/07 05:10:38;;;;;;;2.97;2.77;;;;;;;7.24;78.08;96368.34;5044919;28;20215;-59
2023/04/07 05:13:06;;;;;;;3.40;3.10;;;;;;;7.23;77.84;96367.50;5044539;28;20208;-58
2023/04/07 05:15:33;;;;;;;3.13;2.93;;;;;;;7.22;78.30;96360.59;5045156;28;20215;-58
2023/04/07 05:17:59;;;;;;;3.50;3.00;;;;;;;7.19;78.54;96365.28;5044405;28;20214;-59
2023/04/07 05:20:26;;;;;;;3.30;3.00;;;;;;;7.25;77.69;96370.88;5044613;28;20253;-58
2023/04/07 05:22:52;;;;;;;3.90;3.60;;;;;;;7.15;79.87;96363.88;5044746;28;20199;-58
2023/04/07 05:25:19;;;;;;;3.33;3.10;;;;;;;7.16;79.86;96366.34;5045259;28;20208;-57
2023/04/07 05:27:45;;;;;;;4.00;3.60;;;;;;;7.17;79.65;96364.56;5044471;28;20219;-57
2023/04/07 05:30:15;;;;;;;3.97;3.57;;;;;;;7.14;79.62;96365.66;5044926;28;20203;-57
2023/04/07 05:32:42;;;;;;;3.37;3.10;;;;;;;7.15;78.61;96364.72;5044907;28;20215;-58
2023/04/07 05:35:09;;;;;;;4.63;3.47;;;;;;;7.19;78.80;96360.03;5044872;28;20263;-57
2023/04/07 05:37:36;;;;;;;3.50;3.20;;;;;;;7.29;77.70;96353.03;5044502;28;20699;-57
2023/04/07 05:40:02;;;;;;;3.37;3.07;;;;;;;7.30;77.14;96349.41;5044643;28;20203;-57
2023/04/07 05:42:29;;;;;;;3.90;3.30;;;;;;;7.33;77.62;96351.81;5045031;28;20543;-57
2023/04/07 05:44:55;;;;;;;3.57;3.27;;;;;;;7.34;77.36;96348.19;5044068;28;20632;-59
2023/04/07 05:47:23;;;;;;;3.73;3.27;;;;;;;7.35;77.70;96349.88;5044008;28;20241;-59
2023/04/07 05:49:50;;;;;;;5.90;3.23;;;;;;;7.42;77.30;96348.38;5043968;28;20196;-58
2023/04/07 05:52:16;;;;;;;4.07;3.30;;;;;;;7.42;78.06;96345.75;5045545;28;20250;-57
2023/04/07 05:54:44;;;;;;;3.27;2.97;;;;;;;7.39;79.20;96343.38;5045987;28;20282;-59
2023/04/07 05:57:10;;;;;;;3.63;2.87;;;;;;;7.43;80.55;96347.44;5045222;28;20206;-58
2023/04/07 05:59:37;;;;;;;3.23;2.93;;;;;;;7.44;80.24;96346.44;5043712;28;20214;-58
2023/04/07 06:02:03;;;;;;;3.87;3.10;;;;;;;7.46;79.57;96344.53;5043806;28;20203;-59
2023/04/07 06:04:32;;;;;;;3.77;3.40;;;;;;;7.52;78.94;96341.34;5043919;28;20238;-58
2023/04/07 06:06:59;;;;;;;3.43;3.10;;;;;;;7.55;77.04;96350.78;5044452;28;20269;-58
2023/04/07 06:09:25;;;;;;;2.83;2.63;;;;;;;7.59;79.35;96347.75;5044184;28;20211;-58
2023/04/07 06:11:52;;;;;;;3.70;3.40;;;;;;;7.62;79.99;96341.41;5045702;28;20204;-58
2023/04/07 06:14:18;;;;;;;4.80;4.40;;;;;;;7.71;78.76;96345.88;5046286;28;20299;-57
2023/04/07 06:16:46;;;;;;;3.40;3.20;;;;;;;7.75;82.26;96342.84;5046134;28;20214;-57
2023/04/07 06:19:12;;;;;;;3.60;2.93;;;;;;;7.76;83.77;96336.59;5044145;28;20208;-57
2023/04/07 06:21:40;;;;;;;2.97;2.77;;;;;;;7.72;81.74;96342.28;5043588;28;20546;-57
2023/04/07 06:24:07;;;;;;;3.30;3.00;;;;;;;7.87;81.77;96340.94;5044005;28;20222;-57
2023/04/07 06:26:34;;;;;;;3.13;2.93;;;;;;;8.00;78.50;96338.91;5044421;28;20211;-58
2023/04/07 06:29:00;;;;;;;3.17;2.87;;;;;;;8.12;76.43;96342.25;5043783;28;20277;-57
2023/04/07 06:31:28;;;;;;;2.97;2.67;;;;;;;8.22;77.59;96351.03;5044454;28;20208;-57
2023/04/07 06:33:55;;;;;;;4.47;3.40;;;;;;;8.33;75.68;96353.56;5043314;28;20200;-57
2023/04/07 06:36:22;;;;;;;3.23;2.93;;;;;;;8.35;74.46;96338.47;5044014;28;20207;-57
2023/04/07 06:38:50;;;;;;;4.53;3.20;;;;;;;8.43;74.32;96343.88;5044232;28;20217;-58
2023/04/07 06:41:16;;;;;;;3.33;3.13;;;;;;;8.56;74.91;96336.53;5044161;28;21516;-57
2023/04/07 06:43:43;;;;;;;3.10;2.90;;;;;;;8.68;74.76;96338.06;5043917;28;20298;-57
2023/04/07 06:46:10;;;;;;;3.60;3.30;;;;;;;8.74;75.23;96342.78;5043794;28;20208;-58
2023/04/07 06:48:36;;;;;;;4.53;3.23;;;;;;;8.84;73.82;96340.13;5043283;28;20863;-57
2023/04/07 06:51:03;;;;;;;3.27;3.07;;;;;;;8.92;72.21;96341.13;5043133;28;20610;-58
2023/04/07 06:53:30;;;;;;;3.47;3.20;;;;;;;8.98;72.07;96337.06;5043433;28;20211;-58
2023/04/07 06:56:05;;;;;;;4.83;3.37;;;;;;;9.04;70.58;96339.13;5043192;28;20207;-57
2023/04/07 06:58:31;;;;;;;4.10;3.40;;;;;;;9.07;73.07;96341.50;5043387;28;20209;-59
2023/04/07 07:00:58;;;;;;;4.37;3.33;;;;;;;9.17;71.11;96346.78;5043306;28;20270;-59
2023/04/07 07:03:26;;;;;;;3.83;3.53;;;;;;;9.21;69.81;96343.69;5042067;28;20200;-58
2023/04/07 07:05:55;;;;;;;3.93;3.60;;;;;;;9.22;68.16;96347.16;5043848;28;20207;-58
2023/04/07 07:08:23;;;;;;;3.83;3.50;;;;;;;9.20;68.49;96343.84;5050945;28;20223;-58
2023/04/07 07:10:49;;;;;;;3.93;3.50;;;;;;;9.24;69.54;96339.97;5057510;28;20204;-58
2023/04/07 07:13:18;;;;;;;4.20;3.80;;;;;;;9.29;68.84;96348.25;5059640;28;20207;-59
2023/04/07 07:15:44;;;;;;;3.63;3.37;;;;;;;9.34;70.49;96348.69;5058335;28;20202;-56
2023/04/07 07:18:11;;;;;;;11.40;8.83;;;;;;;9.46;71.63;96352.78;5044302;28;20195;-58
2023/04/07 07:20:39;;;;;;;4.37;4.00;;;;;;;9.48;70.07;96356.13;5041742;28;21615;-59
2023/04/07 07:23:06;;;;;;;4.20;3.90;;;;;;;9.53;68.78;96355.72;5043313;28;20195;-58
2023/04/07 07:25:32;;;;;;;7.20;4.30;;;;;;;9.54;69.85;96363.47;5042345;28;20218;-59
2023/04/07 07:27:59;;;;;;;4.20;3.90;;;;;;;9.66;69.23;96358.88;5043344;28;20227;-57
2023/04/07 07:30:27;;;;;;;3.83;3.50;;;;;;;9.60;69.01;96360.25;5042785;28;20285;-58
2023/04/07 07:32:54;;;;;;;5.07;4.03;;;;;;;9.60;68.66;96357.63;5042184;28;20199;-57
2023/04/07 07:35:20;;;;;;;3.67;3.43;;;;;;;9.69;68.81;96362.03;5042730;28;20298;-63
2023/04/07 07:37:47;;;;;;;4.83;3.77;;;;;;;9.64;67.76;96369.56;5043048;28;20211;-59
2023/04/07 07:40:14;;;;;;;4.23;3.90;;;;;;;9.58;69.90;96367.50;5042812;28;20342;-58
2023/04/07 07:42:41;;;;;;;6.27;4.70;;;;;;;9.58;68.30;96367.50;5042650;28;20214;-60
2023/04/07 07:45:08;;;;;;;4.20;3.90;;;;;;;9.48;70.22;96366.69;5042363;28;20207;-58
2023/04/07 07:47:36;;;;;;;4.60;4.20;;;;;;;9.51;68.30;96369.03;5041977;28;20231;-58
2023/04/07 07:50:03;;;;;;;4.50;4.10;;;;;;;9.50;68.79;96367.38;5041820;28;20655;-59
2023/04/07 07:52:30;;;;;;;4.63;4.10;;;;;;;9.52;67.00;96370.72;5042679;28;20215;-59
2023/04/07 07:54:56;;;;;;;5.10;3.93;;;;;;;9.48;68.57;96371.97;5042219;28;20205;-59
2023/04/07 07:57:23;;;;;;;4.27;3.87;;;;;;;9.51;68.34;96374.31;5043206;28;20234;-59
2023/04/07 07:59:49;;;;;;;4.17;3.77;;;;;;;9.52;70.28;96377.81;5042737;28;20612;-59
2023/04/07 08:02:16;;;;;;;4.20;3.80;;;;;;;9.52;70.62;96386.56;5044503;28;20214;-60
2023/04/07 08:04:44;;;;;;;4.07;3.77;;;;;;;9.51;71.19;96379.59;5048806;28;20199;-58
2023/04/07 08:07:11;;;;;;;4.10;3.80;;;;;;;9.52;70.06;96397.13;5051155;28;21083;-59
2023/04/07 08:09:37;;;;;;;4.43;4.03;;;;;;;9.59;69.21;96398.22;5063807;28;20195;-59
2023/04/07 08:12:04;;;;;;;4.60;4.20;;;;;;;9.48;68.91;96403.66;5055399;28;20580;-59
2023/04/07 08:14:30;;;;;;;4.10;3.70;;;;;;;9.56;69.77;96403.78;5051912;28;20631;-59
2023/04/07 08:16:57;;;;;;;4.43;4.03;;;;;;;9.62;69.19;96408.47;5047655;28;20206;-59
2023/04/07 08:19:23;;;;;;;4.37;3.97;;;;;;;9.65;69.16;96412.63;5051140;28;20208;-60
2023/04/07 08:21:51;;;;;;;4.10;3.80;;;;;;;9.71;68.40;96412.88;5042351;28;20228;-58
2023/04/07 08:24:17;;;;;;;5.30;4.90;;;;;;;9.73;69.64;96412.75;5042286;28;20207;-59
2023/04/07 08:26:44;;;;;;;5.47;4.97;;;;;;;9.79;68.69;96422.75;5045847;28;20650;-59
2023/04/07 08:29:11;;;;;;;4.67;4.27;;;;;;;9.83;67.97;96416.19;5049303;28;20214;-58
2023/04/07 08:31:37;;;;;;;5.90;4.23;;;;;;;9.80;67.23;96427.88;5041584;28;20218;-57
2023/04/07 08:34:04;;;;;;;5.77;5.20;;;;;;;9.79;68.60;96425.38;5041538;28;20222;-60
2023/04/07 08:36:30;;;;;;;3.90;3.53;;;;;;;9.72;67.69;96433.03;5041678;28;20222;-58
2023/04/07 08:39:00;;;;;;;4.30;3.90;;;;;;;9.86;68.35;96429.13;5041854;28;20214;-57
2023/04/07 08:41:30;;;;;;;4.33;3.93;;;;;;;9.93;69.42;96433.69;5041812;28;20656;-57
2023/04/07 08:43:57;;;;;;;3.67;3.37;;;;;;;9.99;69.36;96438.38;5042746;28;20204;-57
2023/04/07 08:46:27;;;;;;;4.13;3.73;;;;;;;10.10;70.38;96439.16;5041672;28;20249;-57
2023/04/07 08:48:56;;;;;;;4.67;4.20;;;;;;;9.92;71.58;96437.28;5041732;28;20334;-58
2023/04/07 08:51:28;;;;;;;4.57;3.47;;;;;;;9.97;72.26;96445.63;5041236;28;20207;-58
2023/04/07 08:54:00;;;;;;;4.10;3.80;;;;;;;9.93;70.50;96453.97;5041670;28;20231;-58
2023/04/07 08:56:27;;;;;;;4.20;3.80;;;;;;;9.91;71.14;96451.50;5042077;28;20218;-57
2023/04/07 08:58:54;;;;;;;4.20;3.90;;;;;;;9.97;72.60;96450.91;5041087;28;20648;-58
2023/04/07 09:01:21;;;;;;;4.93;4.00;;;;;;;10.12;70.93;96450.44;5041268;28;20713;-58
2023/04/07 09:03:48;;;;;;;3.70;3.40;;;;;;;10.24;71.61;96452.78;5040811;28;20231;-57
2023/04/07 09:06:15;;;;;;;3.50;3.30;;;;;;;10.41;71.78;96464.41;5041512;28;20211;-58
2023/04/07 09:08:41;;;;;;;5.23;3.37;;;;;;;10.48;69.80;96468.97;5042192;28;20234;-59
2023/04/07 09:11:09;;;;;;;3.30;3.10;;;;;;;10.33;70.00;96467.78;5041990;28;20207;-57
2023/04/07 09:13:36;;;;;;;3.67;3.10;;;;;;;10.30;72.26;96461.94;5041296;28;20663;-59
2023/04/07 09:16:02;;;;;;;4.43;3.20;;;;;;;10.36;70.76;96466.66;5041407;28;20207;-58
2023/04/07 09:18:29;;;;;;;3.50;3.20;;;;;;;10.29;70.02;96481.41;5040997;28;20545;-58
2023/04/07 09:21:00;;;;;;;3.20;2.87;;;;;;;10.04;72.36;96471.47;5041991;28;21486;-57
2023/04/07 09:23:31;;;;;;;3.63;3.37;;;;;;;9.86;72.18;96469.56;5041881;28;20287;-58
2023/04/07 09:25:59;;;;;;;2.87;2.67;;;;;;;9.87;73.14;96470.41;5041290;28;20628;-58
2023/04/07 09:28:38;;;;;;;3.00;2.80;;;;;;;9.77;73.69;96466.97;5041550;28;20315;-58
2023/04/07 09:31:05;;;;;;;3.30;3.00;;;;;;;9.70;73.37;96468.50;5041910;28;20203;-57
2023/04/07 09:33:31;;;;;;;2.50;2.40;;;;;;;9.63;74.03;96477.97;5045796;28;20643;-58
2023/04/07 09:35:58;;;;;;;2.90;2.70;;;;;;;9.65;74.57;96482.13;5047667;28;20561;-58
2023/04/07 09:38:32;;;;;;;2.80;2.60;;;;;;;9.68;74.73;96483.63;5055017;28;20203;-58
2023/04/07 09:41:06;;;;;;;3.20;3.00;;;;;;;9.60;74.42;96489.59;5063907;28;20202;-58
2023/04/07 09:43:35;;;;;;;3.07;2.87;;;;;;;9.60;74.09;96481.69;5062372;28;20196;-58
2023/04/07 09:46:13;;;;;;;3.03;2.83;;;;;;;9.59;75.76;96485.31;5050486;28;20350;-58
2023/04/07 09:48:40;;;;;;;3.00;2.80;;;;;;;9.58;75.22;96485.44;5044894;28;20668;-58
2023/04/07 09:51:08;;;;;;;3.63;3.43;;;;;;;9.71;77.27;96491.25;5044885;28;20234;-57
2023/04/07 09:53:46;;;;;;;3.37;2.70;;;;;;;9.84;75.92;96484.72;5043734;28;20199;-58
2023/04/07 09:56:13;;;;;;;3.23;2.50;;;;;;;9.97;75.92;96489.69;5044811;28;20260;-58
2023/04/07 09:58:41;;;;;;;2.90;2.50;;;;;;;9.92;74.94;96490.13;5043771;28;20690;-58
2023/04/07 10:01:08;;;;;;;2.90;2.70;;;;;;;10.15;73.52;96489.81;5044164;28;20262;-58
2023/04/07 10:03:35;;;;;;;2.90;2.70;;;;;;;10.24;72.60;96489.78;5044590;28;20278;-57
2023/04/07 10:06:02;;;;;;;2.80;2.60;;;;;;;10.29;74.61;96497.28;5044986;28;20241;-58
2023/04/07 10:08:31;;;;;;;2.50;2.40;;;;;;;10.22;73.55;96502.31;5043639;28;20227;-58
2023/04/07 10:10:58;;;;;;;3.00;2.80;;;;;;;10.39;73.13;96493.63;5043958;28;20310;-58
2023/04/07 10:13:25;;;;;;;2.37;2.17;;;;;;;10.32;72.77;96496.97;5043811;28;20262;-57
2023/04/07 10:15:53;;;;;;;2.20;2.10;;;;;;;10.27;73.87;96494.75;5043861;28;20214;-59
2023/04/07 10:18:21;;;;;;;2.20;2.10;;;;;;;10.09;75.31;96493.00;5044371;28;20224;-59
2023/04/07 10:20:49;;;;;;;2.67;2.47;;;;;;;9.91;74.32;96496.41;5043867;28;20243;-59
2023/04/07 10:23:22;;;;;;;2.70;2.50;;;;;;;10.02;74.67;96497.19;5045704;28;20200;-57
2023/04/07 10:25:51;;;;;;;2.40;2.30;;;;;;;9.93;75.63;96488.31;5044627;28;20204;-59
2023/04/07 10:28:19;;;;;;;2.63;2.30;;;;;;;9.73;75.50;96498.09;5044972;28;20226;-59
2023/04/07 10:30:47;;;;;;;2.70;2.43;;;;;;;9.66;75.84;96506.72;5042556;28;20219;-58
2023/04/07 10:33:17;;;;;;;2.37;2.23;;;;;;;9.58;76.88;96502.13;5043887;28;20204;-59
2023/04/07 10:36:05;;;;;;;2.57;2.40;;;;;;;9.38;78.67;96495.22;5044627;28;20211;-58
2023/04/07 10:38:35;;;;;;;2.40;2.30;;;;;;;9.30;81.15;96502.97;5043809;28;20203;-58
2023/04/07 10:41:31;;;;;;;2.90;2.70;;;;;;;9.33;82.29;96498.25;5044790;28;20207;-59
2023/04/07 10:43:59;;;;;;;2.50;2.30;;;;;;;9.32;82.74;96503.66;5044650;28;20232;-58
2023/04/07 10:46:30;;;;;;;2.97;2.70;;;;;;;9.09;82.26;96512.81;5044168;28;21275;-57
2023/04/07 10:49:09;;;;;;;2.80;2.60;;;;;;;8.97;86.54;96512.94;5043839;28;20595;-57
2023/04/07 10:51:36;;;;;;;2.93;2.73;;;;;;;8.93;87.05;96515.97;5043435;28;20655;-57
2023/04/07 10:54:19;;;;;;;2.80;2.60;;;;;;;9.00;89.61;96523.22;5043422;28;20213;-57
2023/04/07 10:57:09;;;;;;;3.07;2.87;;;;;;;9.07;88.55;96514.78;5043693;28;20203;-58
2023/04/07 10:59:37;;;;;;;3.30;3.10;;;;;;;9.03;90.68;96516.84;5042999;28;20612;-58
2023/04/07 11:02:33;;;;;;;3.07;2.77;;;;;;;9.13;94.65;96520.34;5043071;28;20213;-58
2023/04/07 11:05:01;;;;;;;3.10;2.80;;;;;;;9.08;92.13;96519.88;5043569;28;20257;-59
2023/04/07 11:07:49;;;;;;;3.20;3.00;;;;;;;8.96;92.48;96521.81;5043249;28;20222;-58
2023/04/07 11:10:18;;;;;;;3.00;2.80;;;;;;;9.03;93.82;96531.84;5043264;28;20243;-57
2023/04/07 11:12:44;;;;;;;3.47;3.27;;;;;;;9.05;92.56;96524.59;5042542;28;20216;-58
2023/04/07 11:15:22;;;;;;;3.30;3.10;;;;;;;8.93;92.67;96530.00;5043397;28;20330;-58
2023/04/07 11:18:16;;;;;;;3.60;3.03;;;;;;;8.93;93.53;96537.06;5042818;28;20286;-58
2023/04/07 11:20:46;;;;;;;4.27;3.20;;;;;;;8.95;94.93;96528.06;5041989;28;20235;-58
2023/04/07 11:23:12;;;;;;;3.20;3.00;;;;;;;8.78;93.04;96534.00;5042668;28;20232;-59
2023/04/07 11:25:39;;;;;;;3.20;2.97;;;;;;;8.84;97.02;96538.72;5042451;28;20214;-57
2023/04/07 11:28:06;;;;;;;3.20;2.90;;;;;;;8.80;97.56;96542.59;5042839;28;20265;-58
2023/04/07 11:30:33;;;;;;;3.80;3.53;;;;;;;8.69;95.76;96540.06;5042592;28;20226;-58
2023/04/07 11:33:00;;;;;;;3.70;3.40;;;;;;;8.52;95.31;96548.59;5042127;28;20258;-58
2023/04/07 11:35:26;;;;;;;3.13;2.93;;;;;;;8.32;97.37;96552.97;5042081;28;20203;-58
2023/04/07 11:37:59;;;;;;;2.83;2.60;;;;;;;8.10;96.43;96557.53;5042727;28;20214;-58
2023/04/07 11:40:33;;;;;;;3.43;3.20;;;;;;;7.95;98.57;96549.94;5042538;28;20620;-59
2023/04/07 11:42:59;;;;;;;3.73;3.43;;;;;;;7.96;98.01;96554.25;5042350;28;20230;-59
2023/04/07 11:45:26;;;;;;;3.60;3.40;;;;;;;8.05;100.00;96559.69;5042043;28;20307;-59